createdAt,value
2023-04-03T00:01:35.942Z,28.30
2023-04-03T00:04:04.764Z,28.20
2023-04-03T00:06:33.921Z,28.10
2023-04-03T00:09:03.588Z,28.20
2023-04-03T00:11:32.352Z,28.10
2023-04-03T00:14:01.179Z,28.10
2023-04-03T00:16:30.305Z,28.10
2023-04-03T00:18:59.132Z,28.10
2023-04-03T00:21:28.050Z,28.20
2023-04-03T00:23:56.868Z,28.30
2023-04-03T00:26:25.611Z,28.40
2023-04-03T00:28:54.390Z,28.40
2023-04-03T00:31:23.250Z,28.50
2023-04-03T00:33:52.302Z,28.60
2023-04-03T00:36:21.166Z,28.70
2023-04-03T00:38:50.017Z,28.80
2023-04-03T00:41:18.823Z,28.80
2023-04-03T00:43:49.872Z,28.80
2023-04-03T00:46:19.259Z,28.80
2023-04-03T00:48:49.604Z,28.80
2023-04-03T00:51:23.287Z,28.90
2023-04-03T00:53:59.090Z,29.00
2023-04-03T00:56:30.329Z,29.10
2023-04-03T00:59:06.777Z,29.10
2023-04-03T01:01:36.471Z,29.10
2023-04-03T01:04:07.529Z,29.20
2023-04-03T01:06:39.418Z,29.30
2023-04-03T01:09:09.578Z,29.30
2023-04-03T01:11:38.313Z,29.40
2023-04-03T01:14:08.545Z,29.40
2023-04-03T01:16:37.478Z,29.50
2023-04-03T01:19:06.943Z,29.50
2023-04-03T01:21:52.807Z,29.60
2023-04-03T01:24:37.274Z,29.70
2023-04-03T01:27:08.359Z,29.70
2023-04-03T01:29:37.524Z,29.80
2023-04-03T01:32:06.835Z,29.80
2023-04-03T01:34:35.752Z,29.90
2023-04-03T01:37:04.441Z,29.90
2023-04-03T01:39:33.182Z,30.00
2023-04-03T01:42:01.956Z,30.10
2023-04-03T01:44:30.747Z,30.10
2023-04-03T01:46:59.609Z,30.10
2023-04-03T01:49:28.643Z,30.20
2023-04-03T01:51:57.806Z,30.20
2023-04-03T01:54:27.183Z,30.30
2023-04-03T01:56:55.900Z,30.40
2023-04-03T01:59:24.762Z,30.50
2023-04-03T02:01:53.366Z,30.50
2023-04-03T02:04:24.902Z,30.60
2023-04-03T02:06:53.843Z,30.70
2023-04-03T02:09:22.490Z,30.70
2023-04-03T02:11:51.276Z,30.80
2023-04-03T02:14:20.166Z,30.80
2023-04-03T02:16:48.857Z,30.90
2023-04-03T02:19:17.812Z,31.00
2023-04-03T02:21:46.649Z,31.00
2023-04-03T02:24:15.354Z,31.10
2023-04-03T02:26:44.032Z,31.10
2023-04-03T02:29:12.688Z,31.20
2023-04-03T02:31:41.866Z,31.30
2023-04-03T02:34:10.541Z,31.30
2023-04-03T02:36:39.301Z,31.40
2023-04-03T02:39:08.026Z,31.40
2023-04-03T02:41:37.836Z,31.50
2023-04-03T02:44:08.605Z,31.60
2023-04-03T02:46:37.410Z,31.70
2023-04-03T02:49:06.394Z,31.80
2023-04-03T02:51:35.277Z,31.80
2023-04-03T02:54:04.058Z,31.90
2023-04-03T02:56:33.045Z,31.90
2023-04-03T02:59:01.888Z,32.00
2023-04-03T03:01:33.457Z,32.10
2023-04-03T03:04:03.043Z,32.20
2023-04-03T03:06:31.947Z,32.30
2023-04-03T03:09:00.759Z,32.30
2023-04-03T03:11:29.389Z,32.40
2023-04-03T03:13:58.486Z,32.50
2023-04-03T03:16:27.621Z,32.50
2023-04-03T03:18:57.795Z,32.60
2023-04-03T03:21:26.815Z,32.60
2023-04-03T03:23:55.486Z,32.60
2023-04-03T03:26:24.169Z,32.60
2023-04-03T03:28:53.127Z,32.70
2023-04-03T03:31:22.488Z,32.70
2023-04-03T03:33:51.127Z,32.70
2023-04-03T03:36:19.874Z,32.80
2023-04-03T03:38:48.594Z,32.80
2023-04-03T03:41:17.240Z,32.80
2023-04-03T03:43:45.967Z,32.80
2023-04-03T03:46:14.665Z,32.90
2023-04-03T03:48:43.500Z,32.90
2023-04-03T03:51:12.226Z,32.90
2023-04-03T03:53:40.858Z,33.00
2023-04-03T03:56:10.093Z,33.00
2023-04-03T03:58:39.310Z,33.00
2023-04-03T04:01:09.304Z,33.10
2023-04-03T04:03:39.159Z,33.10
2023-04-03T04:06:08.206Z,33.10
2023-04-03T04:08:37.202Z,33.10
2023-04-03T04:11:05.920Z,33.10
2023-04-03T04:13:34.685Z,33.10
2023-04-03T04:16:03.853Z,33.10
2023-04-03T04:18:32.710Z,33.20
2023-04-03T04:21:04.552Z,33.20
2023-04-03T04:23:33.584Z,33.30
2023-04-03T04:26:02.553Z,33.30
2023-04-03T04:28:31.396Z,33.50
2023-04-03T04:31:00.200Z,33.60
2023-04-03T04:33:29.080Z,33.70
2023-04-03T04:35:58.118Z,33.90
2023-04-03T04:38:27.027Z,34.00
2023-04-03T04:40:55.849Z,34.10
2023-04-03T04:43:24.678Z,34.20
2023-04-03T04:46:07.316Z,34.20
2023-04-03T04:48:37.366Z,34.30
2023-04-03T04:51:06.944Z,34.30
2023-04-03T04:53:35.820Z,34.30
2023-04-03T04:56:05.221Z,34.30
2023-04-03T04:58:34.152Z,34.20
2023-04-03T05:01:05.555Z,34.20
2023-04-03T05:03:34.873Z,34.20
2023-04-03T05:06:04.658Z,34.30
2023-04-03T05:08:33.757Z,34.30
2023-04-03T05:11:02.628Z,34.40
2023-04-03T05:13:31.480Z,34.40
2023-04-03T05:16:00.360Z,34.40
2023-04-03T05:18:29.328Z,34.40
2023-04-03T05:20:58.115Z,34.40
2023-04-03T05:23:27.050Z,34.40
2023-04-03T05:25:56.416Z,34.40
2023-04-03T05:28:25.173Z,34.40
2023-04-03T05:30:59.067Z,34.60
2023-04-03T05:33:28.685Z,34.80
2023-04-03T05:35:57.641Z,34.90
2023-04-03T05:38:26.888Z,35.00
2023-04-03T05:40:55.829Z,35.00
2023-04-03T05:43:24.659Z,35.00
2023-04-03T05:45:54.746Z,35.10
2023-04-03T05:48:23.672Z,35.10
2023-04-03T05:50:53.137Z,35.20
2023-04-03T05:53:28.335Z,35.20
2023-04-03T05:55:57.406Z,35.20
2023-04-03T05:58:26.469Z,35.30
2023-04-03T06:00:55.388Z,35.30
2023-04-03T06:03:24.539Z,35.40
2023-04-03T06:05:53.515Z,35.40
2023-04-03T06:08:22.551Z,35.40
2023-04-03T06:10:52.514Z,35.50
2023-04-03T06:13:21.351Z,35.50
2023-04-03T06:15:50.671Z,35.70
2023-04-03T06:18:19.532Z,35.80
2023-04-03T06:20:48.445Z,35.90
2023-04-03T06:23:17.386Z,35.90
2023-04-03T06:25:46.240Z,35.90
2023-04-03T06:28:15.521Z,36.00
2023-04-03T06:30:44.443Z,36.10
2023-04-03T06:33:13.377Z,36.10
2023-04-03T06:35:42.936Z,36.10
2023-04-03T06:38:12.048Z,36.20
2023-04-03T06:40:41.025Z,36.10
2023-04-03T06:43:10.605Z,36.20
2023-04-03T06:45:39.637Z,36.20
2023-04-03T06:48:08.927Z,36.20
2023-04-03T06:50:37.951Z,36.10
2023-04-03T06:53:07.821Z,36.10
2023-04-03T06:55:37.117Z,36.10
2023-04-03T06:58:06.604Z,36.10
2023-04-03T07:00:38.650Z,36.10
2023-04-03T07:03:07.541Z,36.10
2023-04-03T07:05:37.009Z,36.10
2023-04-03T07:08:06.518Z,36.00
2023-04-03T07:10:35.301Z,36.00
2023-04-03T07:13:04.372Z,36.00
2023-04-03T07:15:33.172Z,36.10
2023-04-03T07:18:01.943Z,36.10
2023-04-03T07:20:30.664Z,36.20
2023-04-03T07:23:00.110Z,36.20
2023-04-03T07:25:29.601Z,36.10
2023-04-03T07:27:58.357Z,36.10
2023-04-03T07:30:28.361Z,36.00
2023-04-03T07:32:57.484Z,36.00
2023-04-03T07:35:26.341Z,35.90
2023-04-03T07:37:55.327Z,35.90
2023-04-03T07:40:24.272Z,35.90
2023-04-03T07:42:53.109Z,35.80
2023-04-03T07:45:21.872Z,35.70
2023-04-03T07:47:50.874Z,35.70
2023-04-03T07:50:20.098Z,35.60
2023-04-03T07:52:48.854Z,35.50
2023-04-03T07:55:17.653Z,35.50
2023-04-03T07:57:46.551Z,35.40
2023-04-03T08:00:16.780Z,35.30
2023-04-03T08:02:51.213Z,35.30
2023-04-03T08:05:21.708Z,35.20
2023-04-03T08:07:53.474Z,35.20
2023-04-03T08:10:22.702Z,35.10
2023-04-03T08:12:51.846Z,35.10
2023-04-03T08:15:20.838Z,35.00
2023-04-03T08:18:10.556Z,34.90
2023-04-03T08:20:42.573Z,34.80
2023-04-03T08:23:12.330Z,34.80
2023-04-03T08:25:43.682Z,34.70
2023-04-03T08:28:14.280Z,34.60
2023-04-03T08:30:44.504Z,34.60
2023-04-03T08:33:16.492Z,34.50
2023-04-03T08:35:45.409Z,34.40
2023-04-03T08:38:14.246Z,34.20
2023-04-03T08:40:44.399Z,34.10
2023-04-03T08:43:39.940Z,34.00
2023-04-03T08:49:01.825Z,33.50
2023-04-03T08:51:31.938Z,33.30
2023-04-03T08:54:13.381Z,33.10
2023-04-03T08:56:46.114Z,33.00
2023-04-03T08:59:20.743Z,32.70
2023-04-03T09:01:50.401Z,32.50
2023-04-03T09:04:20.970Z,32.20
2023-04-03T09:06:57.672Z,31.90
2023-04-03T09:09:44.493Z,31.80
2023-04-03T09:12:26.153Z,31.70
2023-04-03T09:15:04.657Z,31.50
2023-04-03T09:18:01.178Z,31.50
2023-04-03T09:20:39.666Z,31.50
2023-04-03T09:23:30.932Z,31.50
2023-04-03T09:26:16.570Z,31.50
2023-04-03T09:28:50.064Z,31.40
2023-04-03T09:31:37.123Z,31.30
2023-04-03T09:34:12.502Z,31.20
2023-04-03T09:36:51.462Z,31.20
2023-04-03T09:39:22.967Z,31.10
2023-04-03T09:42:00.469Z,31.10
2023-04-03T09:44:33.294Z,31.00
2023-04-03T09:47:26.062Z,31.00
2023-04-03T09:50:16.016Z,31.00
2023-04-03T09:52:46.578Z,31.00
2023-04-03T09:55:29.429Z,31.00
2023-04-03T09:57:59.438Z,31.00
2023-04-03T10:00:33.231Z,31.00
2023-04-03T10:03:02.523Z,31.10
2023-04-03T10:05:38.100Z,31.20
2023-04-03T10:08:28.954Z,31.20
2023-04-03T10:11:20.611Z,31.30
2023-04-03T10:13:54.172Z,31.40
2023-04-03T10:16:29.376Z,31.40
2023-04-03T10:19:00.133Z,31.50
2023-04-03T10:21:52.739Z,31.50
2023-04-03T10:24:23.521Z,31.40
2023-04-03T10:26:57.870Z,31.40
2023-04-03T10:29:46.401Z,31.50
2023-04-03T10:32:33.161Z,31.50
2023-04-03T10:35:41.176Z,31.50
2023-04-03T10:38:19.833Z,31.40
2023-04-03T10:41:16.434Z,31.30
2023-04-03T10:43:55.216Z,31.20
2023-04-03T10:46:38.194Z,31.10
2023-04-03T10:49:24.845Z,31.10
2023-04-03T10:52:02.729Z,31.10
2023-04-03T10:54:41.825Z,31.10
2023-04-03T10:57:14.162Z,31.00
2023-04-03T10:59:52.445Z,31.00
2023-04-03T11:02:31.362Z,31.00
2023-04-03T11:05:20.511Z,31.00
2023-04-03T11:07:55.994Z,31.00
2023-04-03T11:10:34.929Z,31.00
2023-04-03T11:13:18.208Z,31.00
2023-04-03T11:15:48.467Z,31.00
2023-04-03T11:18:39.739Z,31.00
2023-04-03T11:21:23.579Z,31.00
2023-04-03T11:23:54.344Z,31.00
2023-04-03T11:26:27.406Z,30.90
2023-04-03T11:29:02.201Z,30.90
2023-04-03T11:31:35.228Z,30.90
2023-04-03T11:34:42.144Z,30.90
2023-04-03T11:37:34.579Z,30.90
2023-04-03T11:40:11.327Z,30.90
2023-04-03T11:42:42.606Z,30.90
2023-04-03T11:45:28.648Z,30.90
2023-04-03T11:48:09.919Z,30.90
2023-04-03T11:50:48.534Z,30.90
2023-04-03T11:53:18.139Z,30.80
2023-04-03T11:55:54.840Z,30.80
2023-04-03T11:58:25.737Z,30.80
2023-04-03T12:00:57.851Z,30.70
2023-04-03T12:03:34.716Z,30.70
2023-04-03T12:06:12.844Z,30.60
2023-04-03T12:08:44.501Z,30.60
2023-04-03T12:11:14.241Z,30.50
2023-04-03T12:13:59.594Z,30.50
2023-04-03T12:16:48.019Z,30.40
2023-04-03T12:19:18.638Z,30.40
2023-04-03T12:21:50.582Z,30.30
2023-04-03T12:24:21.313Z,30.20
2023-04-03T12:27:17.591Z,30.10
2023-04-03T12:29:58.001Z,30.10
2023-04-03T12:32:54.030Z,30.00
2023-04-03T12:35:45.847Z,30.00
2023-04-03T12:38:32.752Z,30.00
2023-04-03T12:41:30.829Z,29.90
2023-04-03T12:44:17.352Z,30.00
2023-04-03T12:54:34.077Z,29.90
2023-04-03T12:57:23.652Z,30.00
2023-04-03T12:59:54.609Z,30.00
2023-04-03T13:02:31.129Z,30.00
2023-04-03T13:05:09.926Z,30.00
2023-04-03T13:07:42.683Z,29.90
2023-04-03T13:10:11.513Z,29.90
2023-04-03T13:12:58.834Z,29.90
2023-04-03T13:15:33.151Z,29.80
2023-04-03T13:18:02.041Z,29.70
2023-04-03T13:20:33.971Z,29.70
2023-04-03T13:23:06.995Z,29.80
2023-04-03T13:25:38.697Z,29.80
2023-04-03T13:28:13.774Z,29.80
2023-04-03T13:30:56.342Z,29.70
2023-04-03T13:33:29.448Z,29.70
2023-04-03T13:36:03.312Z,29.60
2023-04-03T13:38:35.531Z,29.70
2023-04-03T13:41:25.141Z,29.60
2023-04-03T13:43:58.022Z,29.60
2023-04-03T13:46:35.568Z,29.70
2023-04-03T13:49:21.617Z,29.70
2023-04-03T13:52:00.552Z,29.70
2023-04-03T13:54:39.812Z,29.70
2023-04-03T13:57:18.609Z,29.80
2023-04-03T13:59:47.825Z,29.70
2023-04-03T14:02:30.949Z,29.60
2023-04-03T14:05:03.847Z,29.60
2023-04-03T14:07:33.627Z,29.60
2023-04-03T14:10:02.639Z,29.60
2023-04-03T14:12:36.872Z,29.60
2023-04-03T14:15:14.315Z,29.60
2023-04-03T14:17:44.327Z,29.50
2023-04-03T14:20:19.136Z,29.60
2023-04-03T14:22:48.266Z,29.50
2023-04-03T14:25:18.012Z,29.50
2023-04-03T14:27:50.917Z,29.50
2023-04-03T14:30:25.070Z,29.50
2023-04-03T14:32:56.073Z,29.50
2023-04-03T14:35:25.353Z,29.50
2023-04-03T14:37:55.742Z,29.50
2023-04-03T14:40:29.190Z,29.50
2023-04-03T14:42:59.343Z,29.50
2023-04-03T14:45:28.314Z,29.50
2023-04-03T14:47:58.534Z,29.50
2023-04-03T14:50:29.444Z,29.50
2023-04-03T14:53:00.791Z,29.50
2023-04-03T14:55:33.808Z,29.50
2023-04-03T14:58:02.856Z,29.40
2023-04-03T15:00:31.705Z,29.40
2023-04-03T15:03:00.941Z,29.50
2023-04-03T15:05:30.017Z,29.40
2023-04-03T15:08:02.623Z,29.40
2023-04-03T15:10:32.840Z,29.50
2023-04-03T15:13:05.473Z,29.40
2023-04-03T15:15:41.036Z,29.40
2023-04-03T15:18:13.103Z,29.50
2023-04-03T15:20:42.174Z,29.50
2023-04-03T15:23:14.081Z,29.50
2023-04-03T15:25:43.250Z,29.50
2023-04-03T15:28:21.343Z,29.50
2023-04-03T15:30:50.702Z,29.60
2023-04-03T15:33:25.697Z,29.60
2023-04-03T15:36:02.983Z,29.60
2023-04-03T15:38:40.023Z,29.60
2023-04-03T15:41:09.300Z,29.50
2023-04-03T15:43:38.459Z,29.50
2023-04-03T15:46:07.524Z,29.50
2023-04-03T15:48:36.565Z,29.50
2023-04-03T15:51:05.433Z,29.50
2023-04-03T15:53:34.355Z,29.40
2023-04-03T15:56:03.235Z,29.40
2023-04-03T15:58:32.136Z,29.40
2023-04-03T16:01:01.188Z,29.30
2023-04-03T16:03:30.365Z,29.30
2023-04-03T16:05:59.222Z,29.30
2023-04-03T16:08:28.093Z,29.30
2023-04-03T16:10:56.901Z,29.30
2023-04-03T16:13:25.629Z,29.30
2023-04-03T16:15:54.450Z,29.30
2023-04-03T16:18:23.331Z,29.30
2023-04-03T16:20:52.173Z,29.40
2023-04-03T16:23:21.945Z,29.40
2023-04-03T16:25:51.738Z,29.40
2023-04-03T16:28:20.825Z,29.40
2023-04-03T16:30:51.357Z,29.40
2023-04-03T16:33:23.344Z,29.40
2023-04-03T16:35:54.062Z,29.40
2023-04-03T16:38:24.088Z,29.40
2023-04-03T16:40:54.450Z,29.40
2023-04-03T16:43:23.149Z,29.40
2023-04-03T16:45:51.999Z,29.40
2023-04-03T16:48:20.854Z,29.40
2023-04-03T16:50:52.597Z,29.30
2023-04-03T16:53:22.353Z,29.30
2023-04-03T16:55:51.562Z,29.40
2023-04-03T16:58:21.741Z,29.40
2023-04-03T17:03:44.112Z,29.40
2023-04-03T17:06:18.126Z,29.40
2023-04-03T17:08:48.916Z,29.30
2023-04-03T17:11:17.977Z,29.30
2023-04-03T17:13:46.959Z,29.30
2023-04-03T17:16:17.659Z,29.30
2023-04-03T17:18:47.522Z,29.30
2023-04-03T17:21:17.608Z,29.30
2023-04-03T17:23:50.329Z,29.30
2023-04-03T17:26:18.656Z,29.30
2023-04-03T17:28:47.325Z,29.20
2023-04-03T17:31:16.176Z,29.30
2023-04-03T17:33:44.994Z,29.20
2023-04-03T17:36:14.268Z,29.20
2023-04-03T17:38:43.361Z,29.20
2023-04-03T17:41:12.293Z,29.20
2023-04-03T17:43:41.220Z,29.20
2023-04-03T17:46:11.894Z,29.20
2023-04-03T17:48:42.556Z,29.20
2023-04-03T17:51:13.808Z,29.20
2023-04-03T17:53:43.352Z,29.20
2023-04-03T17:56:14.560Z,29.20
2023-04-03T17:58:43.826Z,29.20
2023-04-03T18:01:14.083Z,29.10
2023-04-03T18:03:43.109Z,29.10
2023-04-03T18:06:16.024Z,29.00
2023-04-03T18:08:50.587Z,29.00
2023-04-03T18:11:20.058Z,28.90
2023-04-03T18:13:49.010Z,28.90
2023-04-03T18:16:17.826Z,28.90
2023-04-03T18:18:50.664Z,28.90
2023-04-03T18:21:22.769Z,28.90
2023-04-03T18:23:55.814Z,28.80
2023-04-03T18:26:29.315Z,28.80
2023-04-03T18:29:02.390Z,28.80
2023-04-03T18:31:34.846Z,28.80
2023-04-03T18:34:03.646Z,28.80
2023-04-03T18:36:32.423Z,28.80
2023-04-03T18:39:01.377Z,28.70
2023-04-03T18:41:33.684Z,28.70
2023-04-03T18:44:05.733Z,28.70
2023-04-03T18:46:35.382Z,28.70
2023-04-03T18:49:05.069Z,28.60
2023-04-03T18:51:33.994Z,28.60
2023-04-03T18:54:04.111Z,28.60
2023-04-03T18:56:34.144Z,28.50
2023-04-03T18:59:02.975Z,28.50
2023-04-03T19:01:32.280Z,28.50
2023-04-03T19:04:01.634Z,28.50
2023-04-03T19:06:30.732Z,28.40
2023-04-03T19:09:00.199Z,28.50
2023-04-03T19:11:30.272Z,28.50
2023-04-03T19:14:14.621Z,28.40
2023-04-03T19:16:44.614Z,28.40
2023-04-03T19:19:13.733Z,28.40
2023-04-03T19:21:42.919Z,28.40
2023-04-03T19:24:13.489Z,28.40
2023-04-03T19:26:43.909Z,28.40
2023-04-03T19:29:12.768Z,28.30
2023-04-03T19:31:41.845Z,28.30
2023-04-03T19:34:10.766Z,28.30
2023-04-03T19:36:39.865Z,28.20
2023-04-03T19:39:08.729Z,28.20
2023-04-03T19:41:38.527Z,28.20
2023-04-03T19:44:08.551Z,28.20
2023-04-03T19:46:37.774Z,28.10
2023-04-03T19:49:07.111Z,28.10
2023-04-03T19:51:35.885Z,28.20
2023-04-03T19:54:06.794Z,28.10
2023-04-03T19:56:35.515Z,28.20
2023-04-03T19:59:04.273Z,28.20
2023-04-03T20:01:34.366Z,28.20
2023-04-03T20:04:03.774Z,28.20
2023-04-03T20:06:32.947Z,28.10
2023-04-03T20:09:02.888Z,28.10
2023-04-03T20:11:31.711Z,28.00
2023-04-03T20:14:00.410Z,28.00
2023-04-03T20:16:29.440Z,28.00
2023-04-03T20:18:58.616Z,27.90
2023-04-03T20:21:33.193Z,28.00
2023-04-03T20:24:03.668Z,27.90
2023-04-03T20:26:33.438Z,27.90
2023-04-03T20:29:03.734Z,27.90
2023-04-03T20:31:33.682Z,27.90
2023-04-03T20:34:03.051Z,27.90
2023-04-03T20:36:32.786Z,27.90
2023-04-03T20:39:01.785Z,27.80
2023-04-03T20:41:30.708Z,27.80
2023-04-03T20:44:01.372Z,27.80
2023-04-03T20:46:42.148Z,27.70
2023-04-03T20:49:18.831Z,27.70
2023-04-03T20:51:47.691Z,27.70
2023-04-03T20:54:16.542Z,27.60
2023-04-03T20:56:48.146Z,27.60
2023-04-03T20:59:18.014Z,27.60
2023-04-03T21:01:47.838Z,27.60
2023-04-03T21:04:24.191Z,27.60
2023-04-03T21:07:32.693Z,27.60
2023-04-03T21:10:41.140Z,27.50
2023-04-03T21:13:49.144Z,27.50
2023-04-03T21:16:18.372Z,27.50
2023-04-03T21:18:52.590Z,27.40
2023-04-03T21:21:25.279Z,27.40
2023-04-03T21:23:55.335Z,27.40
2023-04-03T21:26:26.960Z,27.40
2023-04-03T21:28:56.240Z,27.40
2023-04-03T21:31:25.638Z,27.40
2023-04-03T21:33:54.572Z,27.40
2023-04-03T21:36:23.613Z,27.40
2023-04-03T21:38:52.484Z,27.40
2023-04-03T21:41:22.462Z,27.30
2023-04-03T21:43:51.259Z,27.40
2023-04-03T21:46:21.488Z,27.40
2023-04-03T21:48:50.200Z,27.40
2023-04-03T21:51:18.968Z,27.40
2023-04-03T21:53:47.769Z,27.40
2023-04-03T21:56:16.480Z,27.50
2023-04-03T21:58:45.306Z,27.50
2023-04-03T22:01:18.691Z,27.50
2023-04-03T22:03:48.502Z,27.50
2023-04-03T22:06:18.402Z,27.50
2023-04-03T22:08:47.227Z,27.40
2023-04-03T22:11:17.616Z,27.40
2023-04-03T22:13:46.671Z,27.30
2023-04-03T22:16:15.491Z,27.30
2023-04-03T22:18:44.209Z,27.30
2023-04-03T22:21:12.939Z,27.20
2023-04-03T22:23:41.832Z,27.20
2023-04-03T22:26:13.922Z,27.20
2023-04-03T22:28:45.254Z,27.20
2023-04-03T22:31:15.784Z,27.20
2023-04-03T22:33:46.790Z,27.30
2023-04-03T22:36:16.031Z,27.30
2023-04-03T22:38:45.025Z,27.30
2023-04-03T22:41:14.949Z,27.30
2023-04-03T22:43:43.689Z,27.40
2023-04-03T22:46:12.774Z,27.30
2023-04-03T22:48:44.264Z,27.30
2023-04-03T22:51:13.875Z,27.30
2023-04-03T22:53:42.644Z,27.30
2023-04-03T22:56:13.366Z,27.40
2023-04-03T22:58:42.138Z,27.30
2023-04-03T23:01:13.983Z,27.20
2023-04-03T23:03:43.956Z,27.20
2023-04-03T23:06:14.362Z,27.20
2023-04-03T23:08:43.666Z,27.20
2023-04-03T23:11:12.504Z,27.20
2023-04-03T23:13:41.602Z,27.20
2023-04-03T23:16:10.332Z,27.20
2023-04-03T23:18:40.818Z,27.20
2023-04-03T23:21:11.000Z,27.20
2023-04-03T23:23:39.696Z,27.20
2023-04-03T23:26:10.576Z,27.20
2023-04-03T23:28:39.321Z,27.20
2023-04-03T23:31:09.044Z,27.20
2023-04-03T23:33:39.680Z,27.20
2023-04-03T23:36:09.522Z,27.20
2023-04-03T23:38:39.100Z,27.30
2023-04-03T23:41:08.074Z,27.30
2023-04-03T23:43:37.190Z,27.30
2023-04-03T23:46:05.931Z,27.30
2023-04-03T23:48:34.763Z,27.30
2023-04-03T23:51:03.704Z,27.40
2023-04-03T23:53:32.396Z,27.40
2023-04-03T23:56:01.175Z,27.40
2023-04-03T23:58:29.971Z,27.40
